Time;durP1;ratioP1;P1;durP2;ratioP2;P2;SDS_P1;SDS_P2;PMS_P1;PMS_P2;Temp;Humidity;BMP_temperature;BMP_pressure;BME280_temperature;BME280_humidity;BME280_pressure;Samples;Min_cycle;Max_cycle;Signal;HPM_P1;HPM_P2
2022/07/26 00:00:04;;;;;;;9.82;2.08;;;20.10;99.90;;;;;;4836019;29;36380;-83
2022/07/26 00:02:30;;;;;;;6.97;1.60;;;20.00;99.90;;;;;;4825628;29;47616;-82
2022/07/26 00:04:58;;;;;;;10.10;1.95;;;20.10;99.90;;;;;;4832767;29;37278;-83
2022/07/26 00:07:24;;;;;;;9.15;1.98;;;20.10;99.90;;;;;;4836424;29;37076;-82
2022/07/26 00:09:50;;;;;;;5.82;1.80;;;20.10;99.90;;;;;;4835661;29;38063;-83
2022/07/26 00:12:16;;;;;;;6.43;1.42;;;20.20;99.90;;;;;;4834229;29;37920;-82
2022/07/26 00:14:42;;;;;;;7.90;1.55;;;20.20;99.90;;;;;;4844280;29;38384;-82
2022/07/26 00:17:08;;;;;;;6.78;1.40;;;20.20;99.90;;;;;;4856882;29;38272;-82
2022/07/26 00:19:34;;;;;;;6.22;1.45;;;20.20;99.90;;;;;;4838335;29;36109;-83
2022/07/26 00:24:45;;;;;;;3.58;1.10;;;20.30;99.90;;;;;;4844159;29;49192;-84
2022/07/26 00:27:11;;;;;;;2.67;1.05;;;20.20;99.90;;;;;;4853804;29;38524;-82
2022/07/26 00:29:37;;;;;;;5.40;1.45;;;20.20;99.90;;;;;;4841918;29;36782;-79
2022/07/26 00:32:04;;;;;;;4.13;1.20;;;20.20;99.90;;;;;;4867402;29;38520;-83
2022/07/26 00:34:30;;;;;;;5.82;1.20;;;20.20;99.90;;;;;;4857840;29;37569;-81
2022/07/26 00:36:56;;;;;;;4.78;1.30;;;20.10;99.90;;;;;;4874225;29;39635;-82
2022/07/26 00:39:23;;;;;;;6.88;1.50;;;20.10;99.90;;;;;;4848488;29;36814;-83
2022/07/26 00:41:49;;;;;;;2.50;1.02;;;20.00;99.90;;;;;;4874129;29;38921;-82
2022/07/26 00:44:16;;;;;;;5.78;1.60;;;20.00;99.90;;;;;;4859309;29;38392;-82
2022/07/26 00:46:43;;;;;;;4.32;1.30;;;20.00;99.90;;;;;;4858742;29;38248;-83
2022/07/26 00:49:10;;;;;;;5.60;1.75;;;19.90;99.90;;;;;;4856037;29;37230;-83
2022/07/26 00:51:36;;;;;;;8.38;1.50;;;19.90;99.90;;;;;;4857586;29;37893;-83
2022/07/26 00:54:04;;;;;;;4.43;1.50;;;19.80;99.90;;;;;;4869175;29;39108;-83
2022/07/26 00:56:32;;;;;;;3.17;1.20;;;19.70;99.90;;;;;;4869007;29;38195;-83
2022/07/26 00:59:00;;;;;;;6.10;1.58;;;19.70;99.90;;;;;;4858878;29;38391;-82
2022/07/26 01:01:26;;;;;;;6.55;1.80;;;19.60;99.90;;;;;;4853351;29;37484;-83
2022/07/26 01:03:53;;;;;;;2.90;1.27;;;19.60;99.90;;;;;;4858622;29;38132;-82
2022/07/26 01:06:20;;;;;;;6.95;1.80;;;19.50;99.90;;;;;;4856931;29;37921;-82
2022/07/26 01:08:46;;;;;;;7.40;1.83;;;19.50;99.90;;;;;;4855322;29;37507;-81
2022/07/26 01:11:12;;;;;;;4.50;1.55;;;19.50;99.90;;;;;;4856371;29;37756;-83
2022/07/26 01:13:49;;;;;;;5.80;1.60;;;19.50;99.90;;;;;;4857420;29;38402;-81
2022/07/26 01:16:15;;;;;;;6.82;1.75;;;19.40;99.90;;;;;;4843255;29;38140;-83
2022/07/26 01:18:42;;;;;;;5.50;1.70;;;19.30;99.90;;;;;;4874106;29;37140;-83
2022/07/26 01:21:10;;;;;;;5.15;1.45;;;19.30;99.90;;;;;;4857650;29;38023;-82
2022/07/26 01:23:37;;;;;;;5.80;1.50;;;19.20;99.90;;;;;;4856167;29;37511;-83
2022/07/26 01:26:04;;;;;;;6.32;1.90;;;19.20;99.90;;;;;;4871969;29;38316;-82
2022/07/26 01:28:38;;;;;;;6.70;1.50;;;19.20;99.90;;;;;;4856691;29;36194;-83
2022/07/26 01:31:05;;;;;;;4.72;1.52;;;19.10;99.90;;;;;;4870961;29;38754;-83
2022/07/26 01:33:33;;;;;;;9.85;1.70;;;19.10;99.90;;;;;;4857989;29;38060;-82
2022/07/26 01:36:00;;;;;;;7.82;2.10;;;19.10;99.90;;;;;;4855679;29;38017;-82
2022/07/26 01:38:26;;;;;;;7.03;1.73;;;19.00;99.90;;;;;;4872173;29;37766;-81
2022/07/26 01:40:53;;;;;;;6.75;1.70;;;18.90;99.90;;;;;;4857851;29;37949;-83
2022/07/26 01:43:19;;;;;;;6.72;1.65;;;18.90;99.90;;;;;;4867512;29;38532;-82
2022/07/26 01:45:45;;;;;;;9.80;2.30;;;19.00;99.90;;;;;;4854210;29;38031;-83
2022/07/26 01:48:11;;;;;;;6.25;1.85;;;18.90;99.90;;;;;;4873579;29;38306;-82
2022/07/26 01:50:38;;;;;;;7.28;1.83;;;18.90;99.90;;;;;;4873815;29;39532;-83
2022/07/26 01:53:04;;;;;;;8.07;2.10;;;18.90;99.90;;;;;;4855378;29;37572;-82
2022/07/26 01:55:30;;;;;;;11.23;1.90;;;18.90;99.90;;;;;;4856805;29;37292;-83
2022/07/26 01:57:56;;;;;;;5.28;1.80;;;18.90;99.90;;;;;;4855403;29;35891;-84
2022/07/26 02:00:22;;;;;;;6.15;1.80;;;18.90;99.90;;;;;;4855963;29;37519;-82
2022/07/26 02:02:48;;;;;;;10.55;2.05;;;18.80;99.90;;;;;;4856019;29;37272;-82
2022/07/26 02:05:14;;;;;;;12.82;2.10;;;18.90;99.90;;;;;;4871150;29;37999;-82
2022/07/26 02:07:42;;;;;;;5.13;1.60;;;18.90;99.90;;;;;;4873663;29;37174;-83
2022/07/26 02:10:10;;;;;;;4.00;1.35;;;18.90;99.90;;;;;;4855549;29;39115;-82
2022/07/26 02:12:36;;;;;;;7.57;1.70;;;19.00;99.90;;;;;;4854093;29;38167;-83
2022/07/26 02:15:04;;;;;;;7.63;2.00;;;18.90;99.90;;;;;;4856931;29;37511;-82
2022/07/26 02:17:30;;;;;;;10.27;1.65;;;18.90;99.90;;;;;;4864216;29;47943;-83
2022/07/26 02:19:56;;;;;;;9.55;1.67;;;19.00;99.90;;;;;;4854314;29;39255;-82
2022/07/26 02:22:23;;;;;;;5.32;1.90;;;19.00;99.90;;;;;;4856714;29;37590;-83
2022/07/26 02:24:49;;;;;;;5.65;1.48;;;19.00;99.90;;;;;;4874245;29;39344;-81
2022/07/26 02:27:16;;;;;;;8.10;2.60;;;19.00;99.90;;;;;;4846208;29;37346;-82
2022/07/26 02:29:42;;;;;;;4.97;1.58;;;19.00;99.90;;;;;;4854941;29;37651;-82
2022/07/26 02:32:09;;;;;;;4.90;1.90;;;19.00;99.90;;;;;;4856371;29;37044;-82
2022/07/26 02:34:36;;;;;;;4.68;1.83;;;19.00;99.90;;;;;;4873388;29;39775;-82
2022/07/26 02:37:02;;;;;;;8.13;1.90;;;19.00;99.90;;;;;;4854676;29;37375;-82
2022/07/26 02:39:29;;;;;;;5.15;1.63;;;18.90;99.90;;;;;;4854235;29;37822;-83
2022/07/26 02:42:00;;;;;;;6.07;1.55;;;19.00;99.90;;;;;;4872866;29;38506;-83
2022/07/26 02:44:27;;;;;;;6.85;1.73;;;18.90;99.90;;;;;;4863032;29;37785;-83
2022/07/26 02:46:53;;;;;;;9.05;2.22;;;18.80;99.90;;;;;;4856292;29;35974;-83
2022/07/26 02:49:20;;;;;;;6.25;1.85;;;18.80;99.90;;;;;;4852952;29;37790;-83
2022/07/26 02:51:46;;;;;;;5.97;1.77;;;18.80;99.90;;;;;;4856941;29;37210;-83
2022/07/26 02:54:13;;;;;;;5.15;1.90;;;18.70;99.90;;;;;;4856133;29;38658;-84
2022/07/26 02:56:39;;;;;;;10.40;2.28;;;18.70;99.90;;;;;;4856062;29;36010;-82
2022/07/26 02:59:06;;;;;;;5.97;1.48;;;18.70;99.90;;;;;;4853721;29;37700;-82
2022/07/26 03:01:34;;;;;;;6.93;2.15;;;18.70;99.90;;;;;;4854764;29;37398;-82
2022/07/26 03:04:01;;;;;;;11.90;2.38;;;18.70;99.90;;;;;;4873862;29;38972;-83
2022/07/26 03:06:27;;;;;;;6.63;2.22;;;18.60;99.90;;;;;;4857078;29;47525;-82
2022/07/26 03:08:53;;;;;;;8.07;2.10;;;18.70;99.90;;;;;;4870525;29;39824;-82
2022/07/26 03:11:20;;;;;;;7.47;2.38;;;18.60;99.90;;;;;;4862340;29;38938;-83
2022/07/26 03:13:46;;;;;;;8.77;2.67;;;18.60;99.90;;;;;;4856563;29;38624;-82
2022/07/26 03:16:12;;;;;;;10.70;2.40;;;18.60;99.90;;;;;;4850212;29;36118;-82
2022/07/26 03:18:38;;;;;;;11.57;2.30;;;18.70;99.90;;;;;;4855021;29;38736;-81
2022/07/26 03:21:04;;;;;;;10.38;2.28;;;18.70;99.90;;;;;;4851629;29;39133;-82
2022/07/26 03:23:32;;;;;;;5.78;2.08;;;18.70;99.90;;;;;;4873659;29;37399;-81
2022/07/26 03:25:58;;;;;;;5.88;2.03;;;18.70;99.90;;;;;;4855578;29;37149;-83
2022/07/26 03:28:24;;;;;;;4.70;1.88;;;18.70;99.90;;;;;;4853504;29;37714;-83
2022/07/26 03:30:50;;;;;;;3.90;1.63;;;18.60;99.90;;;;;;4864946;29;38094;-83
2022/07/26 03:33:16;;;;;;;10.45;2.22;;;18.60;99.90;;;;;;4856816;29;38578;-83
2022/07/26 03:35:42;;;;;;;8.98;2.05;;;18.70;99.90;;;;;;4856123;29;36171;-83
2022/07/26 03:38:09;;;;;;;7.15;2.50;;;18.70;99.90;;;;;;4828842;29;38026;-83
2022/07/26 03:40:35;;;;;;;7.75;2.22;;;18.70;99.90;;;;;;4872625;29;37000;-82
2022/07/26 03:43:04;;;;;;;9.55;2.03;;;18.60;99.90;;;;;;4855267;29;37328;-83
2022/07/26 03:45:30;;;;;;;7.93;2.60;;;18.60;99.90;;;;;;4866249;29;46997;-82
2022/07/26 03:47:56;;;;;;;9.23;3.13;;;18.50;99.90;;;;;;4855916;29;39097;-83
2022/07/26 03:50:22;;;;;;;6.82;2.22;;;18.50;99.90;;;;;;4857973;29;39805;-83
2022/07/26 03:52:48;;;;;;;9.10;2.45;;;18.50;99.90;;;;;;4857266;29;37122;-83
2022/07/26 03:58:04;;;;;;;10.80;2.40;;;18.40;99.90;;;;;;4829417;29;39539;-83
2022/07/26 04:00:30;;;;;;;6.63;2.35;;;18.50;99.90;;;;;;4875172;29;38593;-83
2022/07/26 04:02:56;;;;;;;9.43;2.50;;;18.50;99.90;;;;;;4854854;29;38276;-82
2022/07/26 04:05:22;;;;;;;7.18;2.40;;;18.50;99.90;;;;;;4838274;29;35935;-82
2022/07/26 04:07:48;;;;;;;7.82;2.20;;;18.50;99.90;;;;;;4874653;29;38560;-82
2022/07/26 04:10:15;;;;;;;7.03;2.03;;;18.50;99.90;;;;;;4858870;29;37471;-83
2022/07/26 04:12:41;;;;;;;9.00;2.78;;;18.50;99.90;;;;;;4872927;29;37990;-82
2022/07/26 04:15:07;;;;;;;8.88;2.78;;;18.60;99.90;;;;;;4857735;29;37125;-83
2022/07/26 04:17:38;;;;;;;8.57;2.60;;;18.60;99.90;;;;;;4876164;29;37826;-83
2022/07/26 04:20:06;;;;;;;7.70;3.20;;;18.60;99.90;;;;;;4857786;29;38587;-82
2022/07/26 04:22:34;;;;;;;6.82;2.30;;;18.60;99.90;;;;;;4874855;29;37718;-83
2022/07/26 04:25:00;;;;;;;10.57;2.65;;;18.60;99.90;;;;;;4856979;29;36299;-83
2022/07/26 04:27:27;;;;;;;10.82;2.85;;;18.60;99.90;;;;;;4872896;29;39108;-83
2022/07/26 04:29:53;;;;;;;8.15;2.92;;;18.60;99.90;;;;;;4847605;29;38477;-82
2022/07/26 04:32:19;;;;;;;4.95;2.50;;;18.60;99.90;;;;;;4856638;29;37188;-82
2022/07/26 04:34:45;;;;;;;7.07;2.30;;;18.60;99.90;;;;;;4858650;29;36337;-82
2022/07/26 04:37:11;;;;;;;4.95;2.17;;;18.60;99.90;;;;;;4855971;29;37842;-83
2022/07/26 04:39:37;;;;;;;9.15;2.50;;;18.60;99.90;;;;;;4855290;29;37942;-82
2022/07/26 04:42:03;;;;;;;5.78;2.22;;;18.50;99.90;;;;;;4874902;29;38337;-83
2022/07/26 04:44:30;;;;;;;8.98;2.08;;;18.50;99.90;;;;;;4858534;29;37056;-83
2022/07/26 04:46:56;;;;;;;8.02;2.03;;;18.50;99.90;;;;;;4857102;29;39051;-83
2022/07/26 04:49:22;;;;;;;5.35;1.92;;;18.50;99.90;;;;;;4872646;29;38153;-82
2022/07/26 04:51:48;;;;;;;6.45;1.83;;;18.50;99.90;;;;;;4858223;29;37712;-82
2022/07/26 04:54:19;;;;;;;8.75;1.92;;;18.40;99.90;;;;;;4872940;29;37940;-83
2022/07/26 04:56:46;;;;;;;14.55;3.08;;;18.40;99.90;;;;;;4874557;29;38729;-84
2022/07/26 04:59:12;;;;;;;7.47;2.17;;;18.40;99.90;;;;;;4855066;29;37079;-83
2022/07/26 05:01:39;;;;;;;8.68;2.05;;;18.30;99.90;;;;;;4857281;29;36973;-83
2022/07/26 05:04:05;;;;;;;4.78;1.80;;;18.40;99.90;;;;;;4857145;29;36172;-83
2022/07/26 05:06:31;;;;;;;5.80;2.13;;;18.40;99.90;;;;;;4871374;29;38848;-83
2022/07/26 05:08:58;;;;;;;6.30;1.50;;;18.50;99.90;;;;;;4871398;29;38019;-83
2022/07/26 05:11:24;;;;;;;5.80;1.25;;;18.50;99.90;;;;;;4873610;29;37737;-83
2022/07/26 05:13:50;;;;;;;6.70;1.08;;;18.60;99.90;;;;;;4873760;29;38313;-83
2022/07/26 05:16:16;;;;;;;3.53;1.10;;;18.60;99.90;;;;;;4872400;29;39690;-83
2022/07/26 05:18:42;;;;;;;2.53;0.70;;;18.50;99.90;;;;;;4855404;29;37212;-83
2022/07/26 05:21:09;;;;;;;6.55;1.15;;;18.60;99.90;;;;;;4855340;29;36830;-82
2022/07/26 05:23:35;;;;;;;3.63;0.80;;;18.60;99.90;;;;;;4856898;29;36118;-85
2022/07/26 05:26:01;;;;;;;4.03;0.80;;;18.60;99.90;;;;;;4856771;29;39688;-88
2022/07/26 05:28:28;;;;;;;1.75;0.50;;;18.50;99.90;;;;;;4874509;29;47821;-80
2022/07/26 05:30:54;;;;;;;7.47;1.13;;;18.40;99.90;;;;;;4847566;29;38731;-83
2022/07/26 05:33:20;;;;;;;2.65;0.80;;;18.40;99.90;;;;;;4843339;29;37138;-84
2022/07/26 05:35:46;;;;;;;1.23;0.47;;;18.20;99.90;;;;;;4850327;29;38466;-84
2022/07/26 05:38:12;;;;;;;2.53;0.63;;;18.20;99.90;;;;;;4869163;29;38279;-82
2022/07/26 05:40:38;;;;;;;2.75;0.73;;;18.20;99.90;;;;;;4848602;29;38086;-82
2022/07/26 05:43:04;;;;;;;1.23;0.50;;;18.20;99.90;;;;;;4835235;29;37399;-85
2022/07/26 05:45:31;;;;;;;2.60;1.00;;;18.10;99.90;;;;;;4850708;29;37751;-84
2022/07/26 05:47:57;;;;;;;2.53;0.68;;;18.10;99.90;;;;;;4843463;29;38360;-83
2022/07/26 05:50:23;;;;;;;2.15;0.73;;;18.10;99.90;;;;;;4837899;29;37000;-83
2022/07/26 05:52:49;;;;;;;2.50;0.60;;;18.20;99.90;;;;;;4844524;29;36402;-82
2022/07/26 05:55:15;;;;;;;1.23;0.32;;;18.30;99.90;;;;;;4850742;29;37500;-81
2022/07/26 05:57:44;;;;;;;1.85;0.50;;;18.20;99.90;;;;;;4839177;29;37463;-83
2022/07/26 06:00:13;;;;;;;2.25;0.30;;;18.20;99.90;;;;;;4834708;29;38347;-82
2022/07/26 06:02:40;;;;;;;1.70;0.55;;;18.20;99.90;;;;;;4842393;29;38996;-81
2022/07/26 06:05:07;;;;;;;1.55;0.65;;;18.10;99.90;;;;;;4843136;29;37425;-84
2022/07/26 06:07:33;;;;;;;2.63;0.50;;;18.00;99.90;;;;;;4845010;29;37754;-83
2022/07/26 06:09:59;;;;;;;1.90;0.50;;;18.00;99.90;;;;;;4867820;29;38215;-83
2022/07/26 06:12:25;;;;;;;1.05;0.50;;;18.10;99.90;;;;;;4850134;29;36055;-82
2022/07/26 06:14:52;;;;;;;2.00;0.60;;;18.30;99.90;;;;;;4846578;29;37759;-83
2022/07/26 06:17:18;;;;;;;3.55;0.68;;;18.30;99.90;;;;;;4860602;29;39516;-81
2022/07/26 06:19:44;;;;;;;3.97;0.77;;;18.40;99.90;;;;;;4842774;29;37163;-83
2022/07/26 06:22:10;;;;;;;4.93;0.70;;;18.40;99.90;;;;;;4863308;29;37259;-82
2022/07/26 06:24:36;;;;;;;3.10;0.60;;;18.40;99.90;;;;;;4840954;29;38709;-81
2022/07/26 06:27:02;;;;;;;3.72;0.98;;;18.50;99.90;;;;;;4856123;29;38201;-83
2022/07/26 06:29:28;;;;;;;4.53;0.65;;;18.40;99.90;;;;;;4861149;29;38158;-82
2022/07/26 06:31:54;;;;;;;4.68;0.85;;;18.40;99.90;;;;;;4855450;29;36150;-82
2022/07/26 06:34:20;;;;;;;4.05;0.88;;;18.30;99.90;;;;;;4869621;29;38605;-82
2022/07/26 06:36:47;;;;;;;3.05;0.70;;;18.30;99.90;;;;;;4855574;29;38787;-82
2022/07/26 06:39:13;;;;;;;7.07;1.10;;;18.40;99.90;;;;;;4853238;29;37012;-82
2022/07/26 06:41:39;;;;;;;4.32;0.90;;;18.50;99.90;;;;;;4855546;29;36303;-82
2022/07/26 06:44:05;;;;;;;5.63;1.55;;;18.40;99.90;;;;;;4852871;29;38720;-83
2022/07/26 06:46:31;;;;;;;4.25;0.98;;;18.30;99.90;;;;;;4855214;29;37384;-82
2022/07/26 06:48:57;;;;;;;4.20;1.00;;;18.30;99.90;;;;;;4855825;29;38743;-82
2022/07/26 06:51:23;;;;;;;5.25;1.23;;;18.40;99.90;;;;;;4853534;29;36097;-83
2022/07/26 06:53:49;;;;;;;8.55;1.45;;;18.30;99.90;;;;;;4866199;29;38551;-82
2022/07/26 06:56:16;;;;;;;1.65;0.60;;;18.20;99.90;;;;;;4855368;29;37625;-82
2022/07/26 06:58:42;;;;;;;5.88;1.20;;;18.30;99.90;;;;;;4855910;29;37250;-82
2022/07/26 07:01:08;;;;;;;5.38;1.10;;;18.30;99.90;;;;;;4851063;29;36215;-81
2022/07/26 07:03:34;;;;;;;6.10;1.38;;;18.20;99.90;;;;;;4856595;29;37940;-80
2022/07/26 07:06:01;;;;;;;7.80;1.58;;;18.30;99.90;;;;;;4873111;29;39588;-80
2022/07/26 07:08:27;;;;;;;7.65;1.27;;;18.30;99.90;;;;;;4851527;29;47606;-81
2022/07/26 07:10:55;;;;;;;7.93;1.50;;;18.30;99.90;;;;;;4855055;29;37060;-80
2022/07/26 07:13:22;;;;;;;5.00;1.10;;;18.30;99.90;;;;;;4870785;29;38574;-80
2022/07/26 07:15:48;;;;;;;4.82;1.27;;;18.40;99.90;;;;;;4855704;29;37394;-81
2022/07/26 07:18:14;;;;;;;10.38;2.33;;;18.40;99.90;;;;;;4869248;29;38756;-80
2022/07/26 07:20:41;;;;;;;6.13;1.38;;;18.50;99.90;;;;;;4854559;29;36144;-80
2022/07/26 07:23:07;;;;;;;5.53;1.15;;;18.60;99.90;;;;;;4874834;29;38388;-82
2022/07/26 07:25:33;;;;;;;6.28;1.13;;;18.50;99.90;;;;;;4860063;29;37309;-82
2022/07/26 07:27:59;;;;;;;3.72;1.27;;;18.60;99.90;;;;;;4855727;29;37988;-82
2022/07/26 07:30:26;;;;;;;3.40;0.98;;;18.60;99.90;;;;;;4870602;29;36991;-81
2022/07/26 07:32:52;;;;;;;6.43;1.40;;;18.60;99.90;;;;;;4859976;29;38585;-81
2022/07/26 07:35:19;;;;;;;5.90;1.15;;;18.60;99.90;;;;;;4859228;29;20579;-83
2022/07/26 07:37:45;;;;;;;6.32;1.02;;;18.50;99.90;;;;;;4873042;29;38219;-82
2022/07/26 07:40:12;;;;;;;8.35;1.30;;;18.40;99.90;;;;;;4859207;29;36284;-80
2022/07/26 07:42:41;;;;;;;4.43;0.90;;;18.40;99.90;;;;;;4858437;29;37656;-81
2022/07/26 07:45:08;;;;;;;7.03;1.13;;;18.40;99.90;;;;;;4857634;29;37160;-78
2022/07/26 07:47:34;;;;;;;2.40;0.70;;;18.30;99.90;;;;;;4859367;29;36934;-81
2022/07/26 07:50:00;;;;;;;6.03;1.13;;;18.30;99.90;;;;;;4875598;29;38038;-81
2022/07/26 07:52:26;;;;;;;4.88;0.80;;;18.40;99.90;;;;;;4874014;29;40756;-80
2022/07/26 07:54:52;;;;;;;6.03;1.05;;;18.40;99.90;;;;;;4840836;29;40182;-80
2022/07/26 07:57:19;;;;;;;4.88;0.90;;;18.40;99.90;;;;;;4849073;29;37904;-80
2022/07/26 07:59:45;;;;;;;6.65;1.08;;;18.50;99.90;;;;;;4857481;29;36131;-80
2022/07/26 08:02:12;;;;;;;4.20;1.02;;;18.50;99.90;;;;;;4858470;29;37355;-81
2022/07/26 08:04:38;;;;;;;6.25;1.50;;;18.60;99.90;;;;;;4859898;29;38793;-80
2022/07/26 08:07:04;;;;;;;3.97;1.23;;;18.70;99.90;;;;;;4868369;29;37981;-82
2022/07/26 08:09:31;;;;;;;4.47;0.98;;;18.80;99.90;;;;;;4865074;29;37881;-80
2022/07/26 08:11:57;;;;;;;3.65;0.80;;;19.30;99.90;;;;;;4857874;29;39155;-84
2022/07/26 08:14:23;;;;;;;6.28;1.10;;;19.40;99.90;;;;;;4855338;29;38879;-81
2022/07/26 08:16:50;;;;;;;3.47;0.82;;;19.40;99.90;;;;;;4858569;29;38130;-81
2022/07/26 08:19:16;;;;;;;5.55;1.27;;;19.60;99.90;;;;;;4869897;29;37344;-81
2022/07/26 08:21:44;;;;;;;5.40;1.08;;;19.70;99.90;;;;;;4858259;29;37591;-81
2022/07/26 08:24:11;;;;;;;4.63;0.90;;;20.00;99.90;;;;;;4854989;29;38260;-82
2022/07/26 08:26:37;;;;;;;3.17;1.02;;;20.50;99.90;;;;;;4857983;29;37153;-79
2022/07/26 08:29:04;;;;;;;2.58;0.70;;;20.70;99.90;;;;;;4852596;29;37743;-80
2022/07/26 08:31:40;;;;;;;3.40;0.73;;;20.70;99.90;;;;;;4873922;29;39938;-80
2022/07/26 08:34:06;;;;;;;4.63;1.20;;;20.70;99.90;;;;;;4852751;29;38457;-80
2022/07/26 08:36:33;;;;;;;2.78;0.70;;;20.70;99.90;;;;;;4873993;29;38196;-79
2022/07/26 08:39:00;;;;;;;4.53;0.95;;;20.60;99.90;;;;;;4855227;29;38155;-79
2022/07/26 08:41:26;;;;;;;4.93;1.02;;;20.70;99.90;;;;;;4857060;29;37999;-79
2022/07/26 08:43:52;;;;;;;4.97;1.17;;;20.70;99.90;;;;;;4858567;29;37343;-81
2022/07/26 08:46:22;;;;;;;5.25;0.95;;;20.50;99.90;;;;;;4873421;29;38297;-80
2022/07/26 08:48:48;;;;;;;4.03;0.73;;;20.20;99.90;;;;;;4856909;29;36130;-80
2022/07/26 08:51:17;;;;;;;3.97;0.65;;;20.00;99.90;;;;;;4879483;29;38327;-79
2022/07/26 08:53:43;;;;;;;3.67;0.60;;;19.80;99.90;;;;;;4870943;29;37256;-80
2022/07/26 08:56:09;;;;;;;3.08;0.47;;;19.70;99.90;;;;;;4857712;29;37022;-80
2022/07/26 08:58:36;;;;;;;2.35;0.63;;;19.60;99.90;;;;;;4853777;29;36647;-78
2022/07/26 09:01:12;;;;;;;4.25;1.35;;;19.60;99.90;;;;;;4855403;29;40952;-79
2022/07/26 09:03:40;;;;;;;4.05;0.75;;;19.60;99.90;;;;;;4862353;29;38667;-81
2022/07/26 09:06:15;;;;;;;2.63;0.47;;;19.60;99.90;;;;;;4859241;29;36746;-80
2022/07/26 09:08:42;;;;;;;9.70;1.52;;;19.90;99.90;;;;;;4870074;29;37979;-82
2022/07/26 09:11:37;;;;;;;2.03;0.40;;;20.10;99.90;;;;;;4868538;29;39548;-79
2022/07/26 09:14:05;;;;;;;3.72;0.80;;;20.20;99.90;;;;;;4849183;29;37445;-80
2022/07/26 09:16:31;;;;;;;4.10;0.70;;;20.20;99.90;;;;;;4873493;29;39088;-80
2022/07/26 09:19:21;;;;;;;4.15;0.75;;;20.00;99.90;;;;;;4848665;29;36119;-80
2022/07/26 09:21:47;;;;;;;5.65;0.93;;;20.00;99.90;;;;;;4868717;29;48153;-80
2022/07/26 09:24:35;;;;;;;4.45;0.63;;;20.10;99.90;;;;;;4855834;29;38820;-80
2022/07/26 09:27:07;;;;;;;4.13;0.60;;;20.20;99.90;;;;;;4850731;29;37769;-81
2022/07/26 09:29:52;;;;;;;1.85;0.52;;;20.00;99.90;;;;;;4857687;29;37380;-79
2022/07/26 09:32:30;;;;;;;7.45;1.20;;;19.70;99.90;;;;;;4855580;29;39370;-79
2022/07/26 09:35:15;;;;;;;4.47;0.80;;;19.60;99.90;;;;;;4870632;29;38584;-79
2022/07/26 09:37:42;;;;;;;5.22;1.20;;;19.50;99.90;;;;;;4855327;29;47234;-82
2022/07/26 09:40:11;;;;;;;7.65;1.00;;;19.30;99.90;;;;;;4857336;29;36352;-82
2022/07/26 09:42:53;;;;;;;8.10;1.35;;;19.00;99.90;;;;;;4839391;29;39208;-79
2022/07/26 09:45:22;;;;;;;6.07;0.93;;;19.00;99.90;;;;;;4850591;29;39941;-80
2022/07/26 09:47:48;;;;;;;7.57;1.23;;;19.00;99.90;;;;;;4821425;29;36967;-79
2022/07/26 09:50:23;;;;;;;6.15;1.08;;;19.20;99.90;;;;;;4851559;29;37242;-78
2022/07/26 09:53:11;;;;;;;6.38;1.10;;;19.30;99.90;;;;;;4850166;29;37597;-79
2022/07/26 09:55:43;;;;;;;4.72;0.85;;;19.60;99.90;;;;;;4850521;29;46974;-80
2022/07/26 09:58:14;;;;;;;5.80;1.13;;;19.80;99.90;;;;;;4864950;29;38486;-81
2022/07/26 10:00:41;;;;;;;5.45;1.30;;;19.80;99.90;;;;;;4858528;29;38186;-79
2022/07/26 10:03:07;;;;;;;4.45;0.90;;;19.90;99.90;;;;;;4855973;29;38050;-80
2022/07/26 10:05:38;;;;;;;3.95;0.95;;;19.90;99.90;;;;;;4857775;29;37469;-81
2022/07/26 10:08:05;;;;;;;5.00;0.80;;;19.90;99.90;;;;;;4850967;29;37014;-80
2022/07/26 10:10:38;;;;;;;6.80;1.23;;;19.70;99.90;;;;;;4857253;29;35954;-81
2022/07/26 10:13:05;;;;;;;4.95;1.08;;;19.60;99.90;;;;;;4854765;29;38910;-80
2022/07/26 10:15:44;;;;;;;4.18;0.95;;;19.50;99.90;;;;;;4852987;29;38344;-82
2022/07/26 10:18:36;;;;;;;3.13;0.60;;;19.50;99.90;;;;;;4844355;29;37312;-80
2022/07/26 10:21:25;;;;;;;8.80;2.25;;;19.50;99.90;;;;;;4856119;29;36424;-81
2022/07/26 10:23:56;;;;;;;4.65;0.80;;;19.60;99.90;;;;;;4866340;29;38981;-81
2022/07/26 10:26:31;;;;;;;6.13;0.80;;;19.70;99.90;;;;;;4854473;29;37780;-81
2022/07/26 10:29:16;;;;;;;2.30;0.70;;;19.70;99.90;;;;;;4857093;29;37193;-78
2022/07/26 10:31:54;;;;;;;4.30;0.70;;;19.80;99.90;;;;;;4854725;29;47140;-79
2022/07/26 10:34:32;;;;;;;4.53;0.70;;;19.90;99.90;;;;;;4855821;29;38561;-79
2022/07/26 10:37:04;;;;;;;1.98;0.70;;;20.00;99.90;;;;;;4871723;29;39458;-79
2022/07/26 10:39:31;;;;;;;2.30;0.70;;;20.00;99.90;;;;;;4871887;29;48656;-79
2022/07/26 10:42:09;;;;;;;5.03;0.95;;;20.10;99.90;;;;;;4854438;29;36795;-81
2022/07/26 10:44:40;;;;;;;5.18;1.10;;;20.20;99.90;;;;;;4872018;29;48530;-80
2022/07/26 10:47:06;;;;;;;2.40;0.63;;;20.00;99.90;;;;;;4871435;29;38633;-80
2022/07/26 10:49:38;;;;;;;2.78;0.75;;;20.20;99.90;;;;;;4857170;29;37132;-80
2022/07/26 10:52:19;;;;;;;4.03;0.93;;;20.40;99.90;;;;;;4871228;29;38309;-79
2022/07/26 10:55:05;;;;;;;2.42;0.60;;;20.40;99.90;;;;;;4845378;29;37720;-79
2022/07/26 10:57:32;;;;;;;1.58;0.52;;;20.70;99.90;;;;;;4850697;29;47284;-78
2022/07/26 10:59:59;;;;;;;4.40;0.95;;;20.80;99.90;;;;;;4864602;29;37702;-80
2022/07/26 11:02:34;;;;;;;5.65;0.95;;;21.00;99.90;;;;;;4873286;29;37219;-82
2022/07/26 11:05:15;;;;;;;5.70;0.85;;;21.10;99.90;;;;;;4856846;29;37669;-78
2022/07/26 11:07:54;;;;;;;2.90;0.60;;;21.20;99.90;;;;;;4849209;29;47246;-78
2022/07/26 11:10:40;;;;;;;5.05;1.00;;;21.40;99.90;;;;;;4852196;29;37374;-78
2022/07/26 11:13:22;;;;;;;3.15;0.90;;;21.30;99.90;;;;;;4870872;29;38312;-79
2022/07/26 11:15:50;;;;;;;4.50;0.90;;;21.40;99.90;;;;;;4846374;29;38007;-80
2022/07/26 11:18:25;;;;;;;4.60;0.80;;;21.40;99.90;;;;;;4855755;29;38750;-80
2022/07/26 11:20:53;;;;;;;5.85;1.00;;;21.40;99.90;;;;;;4856019;29;37423;-79
2022/07/26 11:23:42;;;;;;;3.63;0.65;;;21.50;99.90;;;;;;4868616;29;36204;-79
2022/07/26 11:26:16;;;;;;;2.85;0.80;;;21.40;99.90;;;;;;4872330;29;39878;-80
2022/07/26 11:28:56;;;;;;;5.15;0.90;;;21.30;99.90;;;;;;4854564;29;37236;-80
2022/07/26 11:31:43;;;;;;;7.25;1.20;;;21.00;99.90;;;;;;4851099;29;37084;-80
2022/07/26 11:34:23;;;;;;;5.55;1.20;;;20.70;99.90;;;;;;4855971;29;36557;-79
2022/07/26 11:36:51;;;;;;;6.28;1.27;;;20.50;99.90;;;;;;4863542;29;38860;-79
2022/07/26 11:39:32;;;;;;;4.90;1.13;;;20.50;99.90;;;;;;4852035;29;38329;-80
2022/07/26 11:42:04;;;;;;;5.80;1.48;;;20.70;99.90;;;;;;4855228;29;37132;-80
2022/07/26 11:44:31;;;;;;;3.83;0.80;;;20.80;99.90;;;;;;4861590;29;46666;-79
2022/07/26 11:46:58;;;;;;;4.75;1.30;;;20.70;99.90;;;;;;4853321;29;37985;-79
2022/07/26 11:49:29;;;;;;;7.50;1.50;;;20.70;99.90;;;;;;4851939;29;37416;-80
2022/07/26 11:52:00;;;;;;;7.40;1.30;;;20.70;99.90;;;;;;4855814;29;36831;-79
2022/07/26 11:54:32;;;;;;;3.67;1.13;;;20.70;99.90;;;;;;4853041;29;36526;-79
2022/07/26 11:57:02;;;;;;;;;;;20.90;99.90;;;;;;4848183;29;38686;-80
2022/07/26 11:59:31;;;;;;;3.55;0.85;;;20.90;99.90;;;;;;4853176;29;47606;-79
2022/07/26 12:01:58;;;;;;;5.78;1.10;;;20.90;99.90;;;;;;4872883;29;38178;-78
2022/07/26 12:04:26;;;;;;;4.15;0.95;;;21.00;99.90;;;;;;4855896;29;36031;-80
2022/07/26 12:06:55;;;;;;;3.55;0.90;;;21.10;99.90;;;;;;4854183;29;39234;-78
2022/07/26 12:09:36;;;;;;;4.18;1.15;;;21.30;99.90;;;;;;4871874;29;38664;-79
2022/07/26 12:12:05;;;;;;;3.10;0.80;;;21.70;99.90;;;;;;4873859;29;39156;-80
2022/07/26 12:14:34;;;;;;;8.40;1.20;;;22.00;99.90;;;;;;4858188;29;38998;-81
2022/07/26 12:17:11;;;;;;;5.68;1.02;;;22.20;99.90;;;;;;4871540;29;38966;-79
2022/07/26 12:19:38;;;;;;;4.78;1.00;;;22.00;99.90;;;;;;4869301;29;49813;-81
2022/07/26 12:22:12;;;;;;;2.67;1.42;;;21.50;99.90;;;;;;4857927;29;36881;-78
2022/07/26 12:24:52;;;;;;;5.30;1.10;;;21.40;99.90;;;;;;4855783;29;36097;-73
2022/07/26 12:27:30;;;;;;;6.97;1.30;;;21.40;99.90;;;;;;4856272;29;38501;-75
2022/07/26 12:30:14;;;;;;;5.30;1.00;;;21.80;99.90;;;;;;4848656;29;37975;-77
2022/07/26 12:32:42;;;;;;;4.22;0.98;;;21.70;99.90;;;;;;4857491;29;47272;-76
2022/07/26 12:35:14;;;;;;;4.30;1.30;;;21.60;99.90;;;;;;4849673;29;36906;-75
2022/07/26 12:37:46;;;;;;;4.68;0.82;;;21.50;99.90;;;;;;4871833;29;38759;-75
2022/07/26 12:40:14;;;;;;;4.78;0.90;;;21.40;99.90;;;;;;4856446;29;37206;-74
2022/07/26 12:42:50;;;;;;;6.18;1.23;;;21.20;99.90;;;;;;4857635;29;37384;-75
2022/07/26 12:45:18;;;;;;;1.98;0.70;;;21.00;99.90;;;;;;4869723;29;37314;-75
2022/07/26 12:47:46;;;;;;;5.47;1.13;;;21.20;99.90;;;;;;4853807;29;38262;-75
2022/07/26 12:50:13;;;;;;;7.13;1.33;;;21.20;99.90;;;;;;4845276;29;38361;-75
2022/07/26 12:52:40;;;;;;;4.90;1.15;;;21.10;99.90;;;;;;4865654;29;37931;-76
2022/07/26 12:55:10;;;;;;;5.63;1.40;;;20.90;99.90;;;;;;4858266;29;36895;-77
2022/07/26 12:57:36;;;;;;;7.10;1.20;;;20.80;99.90;;;;;;4855104;29;38724;-76